createdAt,value
2019-03-16T00:02:14.330Z,99.90
2019-03-16T00:04:44.060Z,99.90
2019-03-16T00:07:13.719Z,99.90
2019-03-16T00:09:43.486Z,99.90
2019-03-16T00:12:13.281Z,99.90
2019-03-16T00:14:42.987Z,99.90
2019-03-16T00:17:23.215Z,99.90
2019-03-16T00:19:45.098Z,99.90
2019-03-16T00:22:15.081Z,99.90
2019-03-16T00:24:45.505Z,99.90
2019-03-16T00:27:15.625Z,99.90
2019-03-16T00:29:45.885Z,99.90
2019-03-16T00:32:16.269Z,99.90
2019-03-16T00:34:46.029Z,99.90
2019-03-16T00:37:15.774Z,99.90
2019-03-16T00:39:45.965Z,99.90
2019-03-16T00:42:15.721Z,99.90
2019-03-16T00:44:45.679Z,99.90
2019-03-16T00:47:15.345Z,99.90
2019-03-16T00:49:45.196Z,99.90
2019-03-16T00:52:14.951Z,99.90
2019-03-16T00:54:44.707Z,99.90
2019-03-16T00:57:14.532Z,99.90
2019-03-16T00:59:44.288Z,99.90
2019-03-16T01:02:26.613Z,99.90
2019-03-16T01:04:45.492Z,99.90
2019-03-16T01:07:15.667Z,99.90
2019-03-16T01:09:45.501Z,99.90
2019-03-16T01:12:15.258Z,99.90
2019-03-16T01:14:45.741Z,99.90
2019-03-16T01:17:15.489Z,99.90
2019-03-16T01:19:45.379Z,99.90
2019-03-16T01:22:15.690Z,99.90
2019-03-16T01:24:45.547Z,99.90
2019-03-16T01:27:15.717Z,99.90
2019-03-16T01:29:45.570Z,99.90
2019-03-16T01:32:15.318Z,99.90
2019-03-16T01:34:45.155Z,99.90
2019-03-16T01:37:14.972Z,99.90
2019-03-16T01:39:45.079Z,99.90
2019-03-16T01:42:14.907Z,99.90
2019-03-16T01:44:44.660Z,99.90
2019-03-16T01:47:14.477Z,99.90
2019-03-16T01:49:44.587Z,99.90
2019-03-16T01:52:14.417Z,99.90
2019-03-16T01:54:44.198Z,99.90
2019-03-16T01:57:13.939Z,99.90
2019-03-16T01:59:43.798Z,99.90
2019-03-16T02:02:13.549Z,99.90
2019-03-16T02:04:43.449Z,99.90
2019-03-16T02:07:13.594Z,99.90
2019-03-16T02:09:43.410Z,99.90
2019-03-16T02:12:13.165Z,99.90
2019-03-16T02:14:42.953Z,99.90
2019-03-16T02:17:12.902Z,99.90
2019-03-16T02:19:42.691Z,99.90
2019-03-16T02:22:12.512Z,99.90
2019-03-16T02:24:42.387Z,99.90
2019-03-16T02:27:12.279Z,99.90
2019-03-16T02:29:42.314Z,99.90
2019-03-16T02:32:12.064Z,99.90
2019-03-16T02:34:41.946Z,99.90
2019-03-16T02:37:13.417Z,99.90
2019-03-16T02:39:43.816Z,99.90
2019-03-16T02:42:13.694Z,99.90
2019-03-16T02:44:43.655Z,99.90
2019-03-16T02:47:13.769Z,99.90
2019-03-16T02:49:44.058Z,99.90
2019-03-16T02:52:14.535Z,99.90
2019-03-16T02:54:44.910Z,99.90
2019-03-16T02:57:15.088Z,99.90
2019-03-16T02:59:44.833Z,99.90
2019-03-16T03:02:15.050Z,99.90
2019-03-16T03:04:46.284Z,99.90
2019-03-16T03:07:16.444Z,99.90
2019-03-16T03:09:46.256Z,99.90
2019-03-16T03:12:16.008Z,99.90
2019-03-16T03:14:45.766Z,99.90
2019-03-16T03:17:15.524Z,99.90
2019-03-16T03:19:45.344Z,99.90
2019-03-16T03:22:15.087Z,99.90
2019-03-16T03:24:44.954Z,99.90
2019-03-16T03:27:14.817Z,99.90
2019-03-16T03:29:44.586Z,99.90
2019-03-16T03:32:14.393Z,99.90
2019-03-16T03:34:44.131Z,99.90
2019-03-16T03:37:13.815Z,99.90
2019-03-16T03:39:43.544Z,99.90
2019-03-16T03:42:13.297Z,99.90
2019-03-16T03:44:43.047Z,99.90
2019-03-16T03:47:12.867Z,99.90
2019-03-16T03:49:42.672Z,99.90
2019-03-16T03:52:12.434Z,99.90
2019-03-16T03:54:42.179Z,99.90
2019-03-16T03:57:11.993Z,99.90
2019-03-16T03:59:41.803Z,99.90
2019-03-16T04:02:11.569Z,99.90
2019-03-16T04:04:41.836Z,99.90
2019-03-16T04:07:11.679Z,99.90
2019-03-16T04:09:41.586Z,99.90
2019-03-16T04:12:11.562Z,99.90
2019-03-16T04:14:41.770Z,99.90
2019-03-16T04:17:12.276Z,99.90
2019-03-16T04:19:42.578Z,99.90
2019-03-16T04:22:12.750Z,99.90
2019-03-16T04:24:45.227Z,99.90
2019-03-16T04:27:16.752Z,99.90
2019-03-16T04:29:46.853Z,99.90
2019-03-16T04:32:16.613Z,99.90
2019-03-16T04:34:46.610Z,99.90
2019-03-16T04:37:16.345Z,99.90
2019-03-16T04:39:46.006Z,99.90
2019-03-16T04:42:15.756Z,99.90
2019-03-16T04:44:45.496Z,99.90
2019-03-16T04:47:15.510Z,99.90
2019-03-16T04:49:45.247Z,99.90
2019-03-16T04:52:15.772Z,99.90
2019-03-16T04:54:46.255Z,99.90
2019-03-16T04:57:16.261Z,99.90
2019-03-16T04:59:46.184Z,99.90
2019-03-16T05:02:15.998Z,99.90
2019-03-16T05:04:46.254Z,99.90
2019-03-16T05:07:15.998Z,99.90
2019-03-16T05:09:45.902Z,99.90
2019-03-16T05:12:16.093Z,99.90
2019-03-16T05:14:46.191Z,99.90
2019-03-16T05:17:16.276Z,99.90
2019-03-16T05:19:46.604Z,99.90
2019-03-16T05:22:16.661Z,99.90
2019-03-16T05:24:46.886Z,99.90
2019-03-16T05:27:16.899Z,99.90
2019-03-16T05:29:46.824Z,99.90
2019-03-16T05:32:17.174Z,99.90
2019-03-16T05:34:56.515Z,99.90
2019-03-16T05:37:18.559Z,99.90
2019-03-16T05:39:48.281Z,99.90
2019-03-16T05:42:18.486Z,99.90
2019-03-16T05:44:48.747Z,99.90
2019-03-16T05:47:18.737Z,99.90
2019-03-16T05:49:48.680Z,99.90
2019-03-16T05:52:18.928Z,99.90
2019-03-16T05:54:49.503Z,99.90
2019-03-16T05:57:19.942Z,99.90
2019-03-16T05:59:50.167Z,99.90
2019-03-16T06:02:20.229Z,99.90
2019-03-16T06:04:50.167Z,99.90
2019-03-16T06:07:20.163Z,99.90
2019-03-16T06:10:09.721Z,99.90
2019-03-16T06:12:40.058Z,99.90
2019-03-16T06:15:10.159Z,99.90
2019-03-16T06:17:40.699Z,99.90
2019-03-16T06:20:11.360Z,99.90
2019-03-16T06:22:41.788Z,99.90
2019-03-16T06:25:12.024Z,99.90
2019-03-16T06:27:42.731Z,99.90
2019-03-16T06:30:12.947Z,99.90
2019-03-16T06:32:43.394Z,99.90
2019-03-16T06:35:23.924Z,99.90
2019-03-16T06:37:45.795Z,99.90
2019-03-16T06:40:16.138Z,99.90
2019-03-16T06:42:45.942Z,99.90
2019-03-16T06:45:15.885Z,99.90
2019-03-16T06:47:46.223Z,99.90
2019-03-16T06:50:16.581Z,99.90
2019-03-16T06:52:47.109Z,99.90
2019-03-16T06:55:17.194Z,99.90
2019-03-16T06:57:47.741Z,99.90
2019-03-16T07:00:18.116Z,99.90
2019-03-16T07:02:48.479Z,99.90
2019-03-16T07:05:22.185Z,99.90
2019-03-16T07:07:52.026Z,99.90
2019-03-16T07:10:22.778Z,99.90
2019-03-16T07:12:52.718Z,99.90
2019-03-16T07:15:22.943Z,99.90
2019-03-16T07:17:53.206Z,99.90
2019-03-16T07:20:23.223Z,99.90
2019-03-16T07:22:53.224Z,99.90
2019-03-16T07:25:23.583Z,99.90
2019-03-16T07:27:54.282Z,99.90
2019-03-16T07:30:24.022Z,99.90
2019-03-16T07:32:54.273Z,99.90
2019-03-16T07:35:24.815Z,99.90
2019-03-16T07:37:54.818Z,99.90
2019-03-16T07:40:25.114Z,99.90
2019-03-16T07:42:55.408Z,99.90
2019-03-16T07:45:25.794Z,99.90
2019-03-16T07:47:56.050Z,99.90
2019-03-16T07:50:26.106Z,99.90
2019-03-16T07:52:56.239Z,99.90
2019-03-16T07:55:26.543Z,99.90
2019-03-16T07:57:56.566Z,99.90
2019-03-16T08:00:26.783Z,99.90
2019-03-16T08:02:56.550Z,99.90
2019-03-16T08:05:26.645Z,99.90
2019-03-16T08:07:57.182Z,99.90
2019-03-16T08:10:28.073Z,99.90
2019-03-16T08:12:58.930Z,99.90
2019-03-16T08:15:29.442Z,99.90
2019-03-16T08:17:59.442Z,99.90
2019-03-16T08:20:31.496Z,99.90
2019-03-16T08:23:02.210Z,99.90
2019-03-16T08:25:32.038Z,99.90
2019-03-16T08:28:01.776Z,99.90
2019-03-16T08:30:31.610Z,99.90
2019-03-16T08:33:01.490Z,99.90
2019-03-16T08:35:31.966Z,99.90
2019-03-16T08:38:02.511Z,99.90
2019-03-16T08:40:32.630Z,99.90
2019-03-16T08:43:02.959Z,99.90
2019-03-16T08:45:32.970Z,99.90
2019-03-16T08:48:03.350Z,99.90
2019-03-16T08:50:33.618Z,99.90
2019-03-16T08:53:03.717Z,99.90
2019-03-16T08:55:34.099Z,99.90
2019-03-16T08:58:06.269Z,99.90
2019-03-16T09:00:35.718Z,99.90
2019-03-16T09:03:05.564Z,99.90
2019-03-16T09:05:35.246Z,99.90
2019-03-16T09:08:05.063Z,99.90
2019-03-16T09:10:34.819Z,99.90
2019-03-16T09:13:04.592Z,99.90
2019-03-16T09:15:34.859Z,99.90
2019-03-16T09:18:04.933Z,99.90
2019-03-16T09:20:35.255Z,99.90
2019-03-16T09:23:05.107Z,99.90
2019-03-16T09:25:34.946Z,99.90
2019-03-16T09:28:04.840Z,99.90
2019-03-16T09:30:34.926Z,99.90
2019-03-16T09:33:04.785Z,99.90
2019-03-16T09:35:34.665Z,99.90
2019-03-16T09:38:05.378Z,99.90
2019-03-16T09:40:35.315Z,99.90
2019-03-16T09:43:05.154Z,99.90
2019-03-16T09:45:34.990Z,99.90
2019-03-16T09:48:04.813Z,99.90
2019-03-16T09:50:34.587Z,99.90
2019-03-16T09:53:04.495Z,99.90
2019-03-16T09:55:35.251Z,99.90
2019-03-16T09:58:05.421Z,99.90
2019-03-16T10:00:35.262Z,99.90
2019-03-16T10:03:05.067Z,99.90
2019-03-16T10:05:35.011Z,99.90
2019-03-16T10:08:04.868Z,99.90
2019-03-16T10:10:37.067Z,99.90
2019-03-16T10:13:07.432Z,99.90
2019-03-16T10:15:37.504Z,99.90
2019-03-16T10:18:07.651Z,99.90
2019-03-16T10:20:38.078Z,99.90
2019-03-16T10:23:08.499Z,99.90
2019-03-16T10:25:38.631Z,99.90
2019-03-16T10:28:08.723Z,99.90
2019-03-16T10:30:39.003Z,99.90
2019-03-16T10:33:11.147Z,99.90
2019-03-16T10:35:41.374Z,99.90
2019-03-16T10:38:11.599Z,99.90
2019-03-16T10:40:42.371Z,99.90
2019-03-16T10:43:12.843Z,99.90
2019-03-16T10:45:42.772Z,99.90
2019-03-16T10:48:13.611Z,99.90
2019-03-16T10:50:43.623Z,99.90
2019-03-16T10:53:14.035Z,99.90
2019-03-16T10:55:44.346Z,99.90
2019-03-16T10:58:14.387Z,99.90
2019-03-16T11:00:44.379Z,99.90
2019-03-16T11:03:14.771Z,99.90
2019-03-16T11:05:44.548Z,99.90
2019-03-16T11:08:14.840Z,99.90
2019-03-16T11:10:45.466Z,99.90
2019-03-16T11:13:16.762Z,99.90
2019-03-16T11:15:47.274Z,99.90
2019-03-16T11:18:17.709Z,99.90
2019-03-16T11:20:47.819Z,99.90
2019-03-16T11:23:17.579Z,99.90
2019-03-16T11:25:47.393Z,99.90
2019-03-16T11:28:17.270Z,99.90
2019-03-16T11:30:47.007Z,99.90
2019-03-16T11:33:16.795Z,99.90
2019-03-16T11:35:46.628Z,99.90
2019-03-16T11:38:16.311Z,99.90
2019-03-16T11:40:46.132Z,99.90
2019-03-16T11:43:15.843Z,99.90
2019-03-16T11:45:45.514Z,99.90
2019-03-16T11:48:15.294Z,99.90
2019-03-16T11:50:44.979Z,99.90
2019-03-16T11:53:14.817Z,99.90
2019-03-16T11:55:44.762Z,99.90
2019-03-16T11:58:14.473Z,99.90
2019-03-16T12:00:44.232Z,99.90
2019-03-16T12:03:23.226Z,99.90
2019-03-16T12:05:52.994Z,99.90
2019-03-16T12:08:23.039Z,99.90
2019-03-16T12:10:53.451Z,99.90
2019-03-16T12:13:23.798Z,99.90
2019-03-16T12:15:54.155Z,99.90
2019-03-16T12:18:23.870Z,99.90
2019-03-16T12:20:53.635Z,99.90
2019-03-16T12:23:23.470Z,99.90
2019-03-16T12:25:53.333Z,99.90
2019-03-16T12:28:23.115Z,99.90
2019-03-16T12:30:52.934Z,99.90
2019-03-16T12:33:22.777Z,99.90
2019-03-16T12:35:52.659Z,99.90
2019-03-16T12:38:23.016Z,99.90
2019-03-16T12:40:53.608Z,99.90
2019-03-16T12:43:24.302Z,99.90
2019-03-16T12:45:54.339Z,99.90
2019-03-16T12:48:24.556Z,99.90
2019-03-16T12:50:54.585Z,99.90
2019-03-16T12:53:25.065Z,99.90
2019-03-16T12:55:55.738Z,99.90
2019-03-16T12:58:26.481Z,99.90
2019-03-16T13:00:56.326Z,99.90
2019-03-16T13:03:26.420Z,99.90
2019-03-16T13:05:56.514Z,99.90
2019-03-16T13:08:27.827Z,99.90
2019-03-16T13:10:58.214Z,99.90
2019-03-16T13:13:28.571Z,99.90
2019-03-16T13:15:58.681Z,99.90
2019-03-16T13:18:28.790Z,99.90
2019-03-16T13:20:58.897Z,99.90
2019-03-16T13:23:29.776Z,99.90
2019-03-16T13:26:00.253Z,99.90
2019-03-16T13:28:30.071Z,99.90
2019-03-16T13:31:00.754Z,99.90
2019-03-16T13:33:30.782Z,99.90
2019-03-16T13:36:01.293Z,99.90
2019-03-16T13:38:32.012Z,99.90
2019-03-16T13:41:02.454Z,99.90
2019-03-16T13:43:33.294Z,99.90
2019-03-16T13:46:03.928Z,99.90
2019-03-16T13:48:37.383Z,99.90
2019-03-16T13:51:08.183Z,99.90
2019-03-16T13:53:38.452Z,99.90
2019-03-16T13:56:08.691Z,99.90
2019-03-16T13:58:40.753Z,99.90
2019-03-16T14:01:11.388Z,99.90
2019-03-16T14:03:42.339Z,99.90
2019-03-16T14:06:12.904Z,99.90
2019-03-16T14:08:42.824Z,99.90
2019-03-16T14:11:13.663Z,99.90
2019-03-16T14:13:44.006Z,99.90
2019-03-16T14:16:14.522Z,99.90
2019-03-16T14:18:45.050Z,99.90
2019-03-16T14:21:15.374Z,99.90
2019-03-16T14:23:45.146Z,99.90
2019-03-16T14:26:14.935Z,99.90
2019-03-16T14:28:44.708Z,99.90
2019-03-16T14:31:14.546Z,99.90
2019-03-16T14:33:44.393Z,99.90
2019-03-16T14:36:14.184Z,99.90
2019-03-16T14:38:44.188Z,99.90
2019-03-16T14:41:14.103Z,99.90
2019-03-16T14:43:44.453Z,99.90
2019-03-16T14:46:14.206Z,99.90
2019-03-16T14:48:44.052Z,99.90
2019-03-16T14:51:14.668Z,99.90
2019-03-16T14:53:44.442Z,99.90
2019-03-16T14:56:14.214Z,99.90
2019-03-16T14:58:44.218Z,99.90
2019-03-16T15:01:14.531Z,99.90
2019-03-16T15:03:46.114Z,99.90
2019-03-16T15:06:16.331Z,99.90
2019-03-16T15:08:46.422Z,99.90
2019-03-16T15:11:16.622Z,99.90
2019-03-16T15:13:47.479Z,99.90
2019-03-16T15:16:18.098Z,99.90
2019-03-16T15:18:48.174Z,99.90
2019-03-16T15:21:18.636Z,99.90
2019-03-16T15:23:48.783Z,99.90
2019-03-16T15:26:19.434Z,99.90
2019-03-16T15:28:54.921Z,99.90
2019-03-16T15:31:22.817Z,99.90
2019-03-16T15:33:53.535Z,99.90
2019-03-16T15:36:24.962Z,99.90
2019-03-16T15:38:54.890Z,99.90
2019-03-16T15:41:24.903Z,99.90
2019-03-16T15:43:55.016Z,99.90
2019-03-16T15:46:25.766Z,99.90
2019-03-16T15:48:57.656Z,99.90
2019-03-16T15:51:27.737Z,99.90
2019-03-16T15:53:57.963Z,99.90
2019-03-16T15:56:28.622Z,99.90
2019-03-16T15:58:59.001Z,99.90
2019-03-16T16:01:28.931Z,99.90
2019-03-16T16:03:58.853Z,99.90
2019-03-16T16:06:29.074Z,99.90
2019-03-16T16:08:58.875Z,99.90
2019-03-16T16:11:31.475Z,99.90
2019-03-16T16:14:01.679Z,99.90
2019-03-16T16:16:32.002Z,99.90
2019-03-16T16:19:02.341Z,99.90
2019-03-16T16:21:32.244Z,99.90
2019-03-16T16:24:02.232Z,99.90
2019-03-16T16:26:32.340Z,99.90
2019-03-16T16:29:02.189Z,99.90
2019-03-16T16:31:32.199Z,99.90
2019-03-16T16:34:03.095Z,99.90
2019-03-16T16:36:33.175Z,99.90
2019-03-16T16:39:03.209Z,99.90
2019-03-16T16:41:33.275Z,99.90
2019-03-16T16:44:03.084Z,99.90
2019-03-16T16:46:32.989Z,99.90
2019-03-16T16:49:03.019Z,99.90
2019-03-16T16:51:33.202Z,99.90
2019-03-16T16:54:03.230Z,99.90
2019-03-16T16:56:33.794Z,99.90
2019-03-16T16:59:03.650Z,99.90
2019-03-16T17:01:34.847Z,99.90
2019-03-16T17:04:04.930Z,99.90
2019-03-16T17:06:34.899Z,99.90
2019-03-16T17:09:07.379Z,99.90
2019-03-16T17:11:38.826Z,99.90
2019-03-16T17:14:10.026Z,99.90
2019-03-16T17:16:39.840Z,99.90
2019-03-16T17:19:09.728Z,99.90
2019-03-16T17:21:40.105Z,99.90
2019-03-16T17:24:09.988Z,99.90
2019-03-16T17:26:40.332Z,99.90
2019-03-16T17:29:10.192Z,99.90
2019-03-16T17:31:42.409Z,99.90
2019-03-16T17:34:12.098Z,99.90
2019-03-16T17:36:42.738Z,99.90
2019-03-16T17:39:12.956Z,99.90
2019-03-16T17:41:43.864Z,99.90
2019-03-16T17:44:14.791Z,99.90
2019-03-16T17:46:45.550Z,99.90
2019-03-16T17:49:16.704Z,99.90
2019-03-16T17:51:47.758Z,99.90
2019-03-16T17:54:18.112Z,99.90
2019-03-16T17:56:48.586Z,99.90
2019-03-16T17:59:18.399Z,99.90
2019-03-16T18:01:54.526Z,99.90
2019-03-16T18:04:19.830Z,99.90
2019-03-16T18:06:49.662Z,99.90
2019-03-16T18:09:19.835Z,99.90
2019-03-16T18:11:49.606Z,99.90
2019-03-16T18:14:19.284Z,99.90
2019-03-16T18:16:49.259Z,99.90
2019-03-16T18:19:19.014Z,99.90
2019-03-16T18:21:48.823Z,99.90
2019-03-16T18:24:18.603Z,99.90
2019-03-16T18:26:48.378Z,99.90
2019-03-16T18:29:18.443Z,99.90
2019-03-16T18:31:48.296Z,99.90
2019-03-16T18:34:18.213Z,99.90
2019-03-16T18:36:47.979Z,99.90
2019-03-16T18:39:18.530Z,99.90
2019-03-16T18:41:49.143Z,99.90
2019-03-16T18:44:19.314Z,99.90
2019-03-16T18:46:49.438Z,99.90
2019-03-16T18:49:19.129Z,99.90
2019-03-16T18:51:49.235Z,99.90
2019-03-16T18:54:18.966Z,99.90
2019-03-16T18:56:49.093Z,99.90
2019-03-16T18:59:19.333Z,99.90
2019-03-16T19:02:27.719Z,99.90
2019-03-16T19:05:36.102Z,99.90
2019-03-16T19:08:06.019Z,99.90
2019-03-16T19:10:36.938Z,99.90
2019-03-16T19:13:07.094Z,99.90
2019-03-16T19:15:37.427Z,99.90
2019-03-16T19:18:07.883Z,99.90
2019-03-16T19:20:38.306Z,99.90
2019-03-16T19:23:08.551Z,99.90
2019-03-16T19:25:38.763Z,99.90
2019-03-16T19:28:09.270Z,99.90
2019-03-16T19:30:39.654Z,99.90
2019-03-16T19:33:10.122Z,99.90
2019-03-16T19:35:40.285Z,99.90
2019-03-16T19:38:13.237Z,99.90
2019-03-16T19:40:42.109Z,99.90
2019-03-16T19:43:11.915Z,99.90
2019-03-16T19:45:41.715Z,99.90
2019-03-16T19:48:11.589Z,99.90
2019-03-16T19:50:41.375Z,99.90
2019-03-16T19:53:11.248Z,99.90
2019-03-16T19:55:41.145Z,99.90
2019-03-16T19:58:11.014Z,99.90
2019-03-16T20:00:40.741Z,99.90
2019-03-16T20:03:10.595Z,99.90
2019-03-16T20:05:47.645Z,99.90
2019-03-16T20:08:31.805Z,99.90
2019-03-16T20:11:06.333Z,99.90
2019-03-16T20:13:33.392Z,99.90
2019-03-16T20:16:03.662Z,99.90
2019-03-16T20:18:33.957Z,99.90
2019-03-16T20:21:04.281Z,99.90
2019-03-16T20:23:34.914Z,99.90
2019-03-16T20:26:05.267Z,99.90
2019-03-16T20:28:35.908Z,99.90
2019-03-16T20:31:06.253Z,99.90
2019-03-16T20:33:35.960Z,99.90
2019-03-16T20:36:05.779Z,99.90
2019-03-16T20:38:36.538Z,99.90
2019-03-16T20:41:06.642Z,99.90
2019-03-16T20:43:36.953Z,99.90
2019-03-16T20:46:07.289Z,99.90
2019-03-16T20:48:37.586Z,99.90
2019-03-16T20:51:07.543Z,99.90
2019-03-16T20:53:37.760Z,99.90
2019-03-16T20:56:07.858Z,99.90
2019-03-16T20:58:38.242Z,99.90
2019-03-16T21:01:08.886Z,99.90
2019-03-16T21:03:39.178Z,99.90
2019-03-16T21:06:08.931Z,99.90
2019-03-16T21:08:39.493Z,99.90
2019-03-16T21:11:09.909Z,99.90
2019-03-16T21:13:40.717Z,99.90
2019-03-16T21:16:12.397Z,99.90
2019-03-16T21:18:42.155Z,99.90
2019-03-16T21:21:12.484Z,99.90
2019-03-16T21:23:42.447Z,99.90
2019-03-16T21:26:13.058Z,99.90
2019-03-16T21:28:43.047Z,99.90
2019-03-16T21:31:13.154Z,99.90
2019-03-16T21:33:45.700Z,99.90
2019-03-16T21:36:14.374Z,99.90
2019-03-16T21:38:44.122Z,99.90
2019-03-16T21:41:13.967Z,99.90
2019-03-16T21:43:43.711Z,99.90
2019-03-16T21:46:13.510Z,99.90
2019-03-16T21:48:43.319Z,99.90
2019-03-16T21:51:13.142Z,99.90
2019-03-16T21:53:43.337Z,99.90
2019-03-16T21:56:13.571Z,99.90
2019-03-16T21:58:43.828Z,99.90
2019-03-16T22:01:14.052Z,99.90
2019-03-16T22:03:44.407Z,99.90
2019-03-16T22:06:14.498Z,99.90
2019-03-16T22:08:44.881Z,99.90
2019-03-16T22:11:14.649Z,99.90
2019-03-16T22:13:44.478Z,99.90
2019-03-16T22:16:14.315Z,99.90
2019-03-16T22:18:44.033Z,99.90
2019-03-16T22:21:13.787Z,99.90
2019-03-16T22:23:43.611Z,99.90
2019-03-16T22:26:13.552Z,99.90
2019-03-16T22:28:43.369Z,99.90
2019-03-16T22:31:13.120Z,99.90
2019-03-16T22:33:53.999Z,99.90
2019-03-16T22:36:14.893Z,99.90
2019-03-16T22:38:44.646Z,99.90
2019-03-16T22:41:14.659Z,99.90
2019-03-16T22:43:44.334Z,99.90
2019-03-16T22:46:14.118Z,99.90
2019-03-16T22:48:43.867Z,99.90
2019-03-16T22:51:13.737Z,99.90
2019-03-16T22:53:43.403Z,99.90
2019-03-16T22:56:13.158Z,99.90
2019-03-16T22:58:43.196Z,99.90
2019-03-16T23:01:13.022Z,99.90
2019-03-16T23:04:06.753Z,99.90
2019-03-16T23:06:33.359Z,99.90
2019-03-16T23:09:03.591Z,99.90
2019-03-16T23:11:33.278Z,99.90
2019-03-16T23:14:03.046Z,99.90
2019-03-16T23:16:32.739Z,96.50
2019-03-16T23:19:02.546Z,95.30
2019-03-16T23:21:32.350Z,95.10
2019-03-16T23:24:02.172Z,95.70
2019-03-16T23:26:38.302Z,94.80
2019-03-16T23:29:03.359Z,94.40
2019-03-16T23:31:33.563Z,93.10
2019-03-16T23:34:03.452Z,92.10
2019-03-16T23:36:33.127Z,92.30
2019-03-16T23:39:04.255Z,92.00
2019-03-16T23:41:34.450Z,90.70
2019-03-16T23:44:04.254Z,90.20
2019-03-16T23:46:34.083Z,88.80
2019-03-16T23:49:03.828Z,88.10
2019-03-16T23:51:33.927Z,88.20
2019-03-16T23:54:03.746Z,86.50
2019-03-16T23:56:33.571Z,83.20
2019-03-16T23:59:03.348Z,85.30
